createdAt,value
2019-03-01T00:01:15.268Z,5.17
2019-03-01T00:03:43.779Z,4.13
2019-03-01T00:06:24.127Z,5.80
2019-03-01T00:09:01.215Z,4.27
2019-03-01T00:11:41.375Z,5.03
2019-03-01T00:14:24.912Z,4.90
2019-03-01T00:16:58.998Z,6.00
2019-03-01T00:19:42.477Z,5.47
2019-03-01T00:22:26.044Z,4.37
2019-03-01T00:24:57.556Z,4.57
2019-03-01T00:27:37.986Z,5.10
2019-03-01T00:30:27.460Z,4.97
2019-03-01T00:33:01.700Z,4.93
2019-03-01T00:35:51.815Z,5.83
2019-03-01T00:38:29.169Z,4.53
2019-03-01T00:41:21.686Z,4.97
2019-03-01T00:44:20.230Z,8.43
2019-03-01T00:46:48.684Z,5.17
2019-03-01T00:49:17.174Z,5.50
2019-03-01T00:51:45.631Z,5.07
2019-03-01T00:54:14.133Z,5.00
2019-03-01T00:56:42.643Z,5.20
2019-03-01T00:59:11.052Z,5.30
2019-03-01T01:01:39.499Z,5.90
2019-03-01T01:04:07.996Z,4.43
2019-03-01T01:06:36.439Z,6.57
2019-03-01T01:09:06.812Z,4.80
2019-03-01T01:11:35.224Z,5.53
2019-03-01T01:14:03.736Z,5.40
2019-03-01T01:16:32.195Z,5.23
2019-03-01T01:19:00.643Z,5.40
2019-03-01T01:21:29.071Z,4.50
2019-03-01T01:23:57.513Z,4.50
2019-03-01T01:26:26.117Z,4.70
2019-03-01T01:28:54.534Z,4.00
2019-03-01T01:31:23.049Z,4.87
2019-03-01T01:33:51.514Z,3.90
2019-03-01T01:36:20.007Z,4.80
2019-03-01T01:38:48.438Z,4.50
2019-03-01T01:41:16.866Z,5.63
2019-03-01T01:43:45.307Z,5.07
2019-03-01T01:46:13.900Z,5.03
2019-03-01T01:48:43.148Z,5.03
2019-03-01T01:51:11.584Z,5.27
2019-03-01T01:53:40.085Z,4.50
2019-03-01T01:56:09.124Z,5.23
2019-03-01T01:58:37.638Z,4.30
2019-03-01T02:01:06.089Z,4.80
2019-03-01T02:03:34.592Z,5.50
2019-03-01T02:06:03.009Z,6.20
2019-03-01T02:08:31.621Z,5.10
2019-03-01T02:11:00.132Z,4.70
2019-03-01T02:13:28.656Z,4.80
2019-03-01T02:15:57.091Z,5.80
2019-03-01T02:18:25.571Z,5.97
2019-03-01T02:20:54.020Z,5.27
2019-03-01T02:23:22.481Z,4.40
2019-03-01T02:25:51.572Z,5.10
2019-03-01T02:28:20.061Z,5.43
2019-03-01T02:30:51.897Z,5.07
2019-03-01T02:33:20.445Z,5.73
2019-03-01T02:35:48.933Z,5.20
2019-03-01T02:38:17.453Z,16.60
2019-03-01T02:40:45.972Z,10.80
2019-03-01T02:43:14.626Z,7.43
2019-03-01T02:45:43.104Z,4.67
2019-03-01T02:48:11.515Z,5.90
2019-03-01T02:50:40.074Z,5.67
2019-03-01T02:53:08.499Z,5.37
2019-03-01T02:55:36.942Z,5.37
2019-03-01T02:58:05.574Z,5.27
2019-03-01T03:00:35.717Z,5.80
2019-03-01T03:03:04.210Z,5.20
2019-03-01T03:05:34.331Z,5.70
2019-03-01T03:08:04.437Z,14.27
2019-03-01T03:10:32.852Z,10.93
2019-03-01T03:13:03.832Z,6.73
2019-03-01T03:15:39.649Z,6.13
2019-03-01T03:18:08.144Z,5.87
2019-03-01T03:20:36.615Z,5.77
2019-03-01T03:23:05.221Z,5.33
2019-03-01T03:25:33.653Z,5.07
2019-03-01T03:28:02.081Z,6.80
2019-03-01T03:30:30.533Z,5.97
2019-03-01T03:32:58.937Z,23.80
2019-03-01T03:35:27.417Z,7.50
2019-03-01T03:37:55.846Z,6.00
2019-03-01T03:40:24.266Z,6.10
2019-03-01T03:42:52.833Z,5.20
2019-03-01T03:45:21.368Z,5.53
2019-03-01T03:47:49.854Z,6.17
2019-03-01T03:50:18.387Z,5.23
2019-03-01T03:52:46.856Z,6.37
2019-03-01T03:55:19.081Z,5.27
2019-03-01T03:57:47.814Z,6.00
2019-03-01T04:00:24.315Z,6.40
2019-03-01T04:02:52.874Z,6.33
2019-03-01T04:05:21.381Z,5.93
2019-03-01T04:07:49.841Z,9.40
2019-03-01T04:10:18.394Z,7.60
2019-03-01T04:12:46.838Z,7.70
2019-03-01T04:15:16.573Z,6.33
2019-03-01T04:17:45.180Z,6.40
2019-03-01T04:20:19.268Z,5.50
2019-03-01T04:22:47.695Z,6.63
2019-03-01T04:25:16.090Z,7.67
2019-03-01T04:27:44.629Z,6.60
2019-03-01T04:30:17.379Z,6.23
2019-03-01T04:32:45.789Z,5.53
2019-03-01T04:35:14.889Z,10.90
2019-03-01T04:37:43.317Z,11.60
2019-03-01T04:40:13.817Z,6.60
2019-03-01T04:42:42.373Z,5.67
2019-03-01T04:45:15.399Z,4.83
2019-03-01T04:47:43.950Z,6.03
2019-03-01T04:50:13.086Z,5.20
2019-03-01T04:52:41.779Z,5.47
2019-03-01T04:55:15.265Z,3.73
2019-03-01T04:57:43.756Z,4.90
2019-03-01T05:00:20.275Z,5.07
2019-03-01T05:02:48.744Z,5.90
2019-03-01T05:05:17.420Z,5.50
2019-03-01T05:07:46.212Z,5.70
2019-03-01T05:10:15.585Z,4.93
2019-03-01T05:12:44.113Z,7.30
2019-03-01T05:15:21.582Z,5.70
2019-03-01T05:17:50.150Z,6.33
2019-03-01T05:20:18.640Z,7.30
2019-03-01T05:22:47.150Z,8.20
2019-03-01T05:25:15.658Z,7.83
2019-03-01T05:27:44.089Z,8.77
2019-03-01T05:30:15.268Z,8.43
2019-03-01T05:32:43.676Z,8.67
2019-03-01T05:35:12.284Z,8.67
2019-03-01T05:37:40.770Z,8.77
2019-03-01T05:40:13.789Z,9.17
2019-03-01T05:42:42.281Z,9.63
2019-03-01T05:45:13.617Z,10.87
2019-03-01T05:47:42.068Z,11.37
2019-03-01T05:50:13.128Z,11.33
2019-03-01T05:52:41.685Z,11.27
2019-03-01T05:55:11.529Z,12.97
2019-03-01T05:58:16.723Z,12.73
2019-03-01T06:00:45.771Z,14.43
2019-03-01T06:03:41.233Z,14.43
2019-03-01T06:06:15.559Z,16.37
2019-03-01T06:08:47.071Z,14.90
2019-03-01T06:11:18.579Z,16.30
2019-03-01T06:14:13.610Z,18.40
2019-03-01T06:16:56.819Z,17.30
2019-03-01T06:19:43.212Z,16.50
2019-03-01T06:22:46.297Z,18.00
2019-03-01T06:25:23.587Z,16.60
2019-03-01T06:28:23.455Z,16.70
2019-03-01T06:31:09.715Z,18.40
2019-03-01T06:34:00.618Z,17.67
2019-03-01T06:36:48.471Z,16.70
2019-03-01T06:39:27.256Z,17.53
2019-03-01T06:42:08.970Z,19.23
2019-03-01T06:44:58.080Z,17.43
2019-03-01T06:47:43.901Z,17.40
2019-03-01T06:50:16.663Z,19.40
2019-03-01T06:52:45.206Z,18.10
2019-03-01T06:55:22.471Z,17.73
2019-03-01T06:57:50.963Z,18.23
2019-03-01T07:00:26.123Z,18.60
2019-03-01T07:02:58.637Z,20.00
2019-03-01T07:05:30.991Z,19.47
2019-03-01T07:08:01.047Z,19.37
2019-03-01T07:10:29.931Z,19.97
2019-03-01T07:12:59.302Z,20.50
2019-03-01T07:15:31.156Z,19.30
2019-03-01T07:17:59.908Z,21.10
2019-03-01T07:20:28.699Z,20.80
2019-03-01T07:23:00.609Z,21.70
2019-03-01T07:25:31.588Z,24.13
2019-03-01T07:28:00.149Z,26.50
2019-03-01T07:30:28.633Z,28.60
2019-03-01T07:33:01.264Z,29.15
2019-03-01T07:35:33.119Z,32.00
2019-03-01T07:38:01.564Z,33.77
2019-03-01T07:40:29.966Z,36.23
2019-03-01T07:43:01.551Z,39.33
2019-03-01T07:45:34.685Z,40.27
2019-03-01T07:48:04.357Z,45.53
2019-03-01T07:50:32.893Z,46.63
2019-03-01T07:53:03.735Z,45.90
2019-03-01T07:55:37.666Z,47.10
2019-03-01T07:58:10.780Z,49.37
2019-03-01T08:00:43.358Z,49.50
2019-03-01T08:03:14.783Z,46.17
2019-03-01T08:05:41.956Z,51.13
2019-03-01T08:08:11.201Z,50.20
2019-03-01T08:10:44.123Z,54.97
2019-03-01T08:13:17.516Z,56.60
2019-03-01T08:15:44.968Z,64.30
2019-03-01T08:18:12.961Z,62.17
2019-03-01T08:20:45.621Z,63.48
2019-03-01T08:23:18.897Z,63.60
2019-03-01T08:25:47.513Z,66.87
2019-03-01T08:28:18.474Z,59.50
2019-03-01T08:30:47.737Z,68.80
2019-03-01T08:33:19.851Z,73.25
2019-03-01T08:35:49.495Z,74.47
2019-03-01T08:38:17.966Z,71.13
2019-03-01T08:40:50.136Z,72.83
2019-03-01T08:43:20.516Z,72.37
2019-03-01T08:45:50.002Z,74.23
2019-03-01T08:48:21.159Z,75.40
2019-03-01T08:50:49.594Z,70.62
2019-03-01T08:53:23.909Z,77.80
2019-03-01T08:55:56.301Z,71.57
2019-03-01T08:58:33.620Z,78.72
2019-03-01T09:01:08.358Z,72.37
2019-03-01T09:03:53.893Z,66.10
2019-03-01T09:06:23.187Z,60.73
2019-03-01T09:08:51.607Z,61.33
2019-03-01T09:11:21.678Z,63.50
2019-03-01T09:13:51.382Z,62.77
2019-03-01T09:16:20.103Z,62.87
2019-03-01T09:18:50.088Z,59.80
2019-03-01T09:21:21.030Z,56.88
2019-03-01T09:23:52.255Z,64.03
2019-03-01T09:26:20.690Z,59.07
2019-03-01T09:28:49.837Z,58.07
2019-03-01T09:31:22.129Z,55.50
2019-03-01T09:33:56.465Z,53.30
2019-03-01T09:36:23.863Z,54.70
2019-03-01T09:38:53.179Z,55.78
2019-03-01T09:41:23.453Z,54.93
2019-03-01T09:43:59.728Z,52.23
2019-03-01T09:46:32.984Z,59.40
2019-03-01T09:49:03.434Z,55.83
2019-03-01T09:51:32.240Z,55.00
2019-03-01T09:54:00.787Z,49.80
2019-03-01T09:56:31.510Z,50.03
2019-03-01T09:58:59.929Z,50.20
2019-03-01T10:01:28.569Z,57.97
2019-03-01T10:03:59.125Z,52.00
2019-03-01T10:06:37.656Z,58.53
2019-03-01T10:08:58.985Z,54.67
2019-03-01T10:11:27.599Z,58.17
2019-03-01T10:14:01.268Z,56.00
2019-03-01T10:16:33.441Z,53.93
2019-03-01T10:19:01.989Z,52.30
2019-03-01T10:21:30.808Z,53.17
2019-03-01T10:24:01.820Z,50.77
2019-03-01T10:26:34.323Z,46.50
2019-03-01T10:29:02.979Z,49.67
2019-03-01T10:31:31.868Z,49.60
2019-03-01T10:34:04.608Z,50.60
2019-03-01T10:36:35.053Z,47.30
2019-03-01T10:39:05.539Z,44.77
2019-03-01T10:41:34.261Z,41.87
2019-03-01T10:44:03.284Z,42.80
2019-03-01T10:46:35.851Z,43.90
2019-03-01T10:49:04.727Z,42.77
2019-03-01T10:51:33.543Z,41.30
2019-03-01T10:54:03.233Z,39.78
2019-03-01T10:56:32.898Z,41.00
2019-03-01T10:59:01.880Z,40.30
2019-03-01T11:01:30.943Z,43.50
2019-03-01T11:04:03.483Z,43.97
2019-03-01T11:06:32.104Z,44.40
2019-03-01T11:09:00.910Z,40.73
2019-03-01T11:11:34.117Z,41.17
2019-03-01T11:14:06.373Z,41.83
2019-03-01T11:16:38.404Z,42.80
2019-03-01T11:19:09.375Z,40.83
2019-03-01T11:21:37.064Z,41.33
2019-03-01T11:24:07.137Z,40.00
2019-03-01T11:26:39.773Z,39.10
2019-03-01T11:29:11.237Z,42.23
2019-03-01T11:31:39.183Z,38.40
2019-03-01T11:34:13.283Z,39.37
2019-03-01T11:36:44.708Z,41.40
2019-03-01T11:39:15.333Z,42.07
2019-03-01T11:41:48.725Z,36.67
2019-03-01T11:44:17.141Z,37.77
2019-03-01T11:46:45.929Z,34.50
2019-03-01T11:49:16.149Z,35.90
2019-03-01T11:51:45.777Z,34.20
2019-03-01T11:54:14.504Z,34.43
2019-03-01T11:56:44.735Z,34.87
2019-03-01T11:59:16.413Z,33.33
2019-03-01T12:01:48.225Z,35.83
2019-03-01T12:04:17.116Z,38.83
2019-03-01T12:06:45.678Z,34.07
2019-03-01T12:09:15.799Z,30.93
2019-03-01T12:11:44.664Z,30.10
2019-03-01T12:14:13.241Z,30.75
2019-03-01T12:16:44.170Z,34.55
2019-03-01T12:19:12.594Z,29.60
2019-03-01T12:21:41.109Z,32.55
2019-03-01T12:24:11.663Z,31.47
2019-03-01T12:26:44.797Z,34.40
2019-03-01T12:29:13.230Z,43.60
2019-03-01T12:31:41.677Z,32.60
2019-03-01T12:34:14.046Z,34.53
2019-03-01T12:36:47.245Z,33.70
2019-03-01T12:39:22.935Z,32.63
2019-03-01T12:41:57.181Z,37.20
2019-03-01T12:44:32.062Z,35.73
2019-03-01T12:47:04.504Z,32.83
2019-03-01T12:49:38.760Z,39.37
2019-03-01T12:52:12.417Z,37.57
2019-03-01T12:54:44.890Z,37.70
2019-03-01T12:57:21.076Z,40.13
2019-03-01T12:59:59.047Z,41.37
2019-03-01T13:02:34.909Z,40.30
2019-03-01T13:05:08.416Z,39.13
2019-03-01T13:07:38.412Z,37.60
2019-03-01T13:10:16.205Z,40.40
2019-03-01T13:12:46.138Z,37.37
2019-03-01T13:15:20.695Z,38.80
2019-03-01T13:17:57.029Z,38.67
2019-03-01T13:20:29.973Z,37.77
2019-03-01T13:23:00.899Z,38.27
2019-03-01T13:25:34.336Z,35.50
2019-03-01T13:28:03.145Z,39.87
2019-03-01T13:30:35.326Z,36.85
2019-03-01T13:33:03.587Z,34.30
2019-03-01T13:35:37.715Z,33.90
2019-03-01T13:38:10.751Z,37.23
2019-03-01T13:40:43.297Z,33.80
2019-03-01T13:43:11.727Z,34.20
2019-03-01T13:45:40.261Z,31.07
2019-03-01T13:48:15.805Z,30.17
2019-03-01T13:50:45.363Z,31.43
2019-03-01T13:53:15.534Z,31.60
2019-03-01T13:55:44.137Z,40.27
2019-03-01T13:58:13.004Z,34.00
2019-03-01T14:00:48.827Z,30.80
2019-03-01T14:03:24.292Z,30.23
2019-03-01T14:05:55.891Z,28.97
2019-03-01T14:08:27.211Z,28.83
2019-03-01T14:10:56.059Z,33.50
2019-03-01T14:13:24.965Z,33.70
2019-03-01T14:15:54.996Z,31.33
2019-03-01T14:18:27.716Z,28.23
2019-03-01T14:20:58.152Z,25.35
2019-03-01T14:23:26.491Z,17.17
2019-03-01T14:25:56.988Z,17.00
2019-03-01T14:28:27.747Z,13.70
2019-03-01T14:30:56.791Z,16.77
2019-03-01T14:33:25.212Z,13.50
2019-03-01T14:35:53.732Z,11.70
2019-03-01T14:38:22.147Z,12.50
2019-03-01T14:40:50.602Z,11.40
2019-03-01T14:43:20.268Z,14.20
2019-03-01T14:45:49.191Z,15.90
2019-03-01T14:48:17.640Z,19.67
2019-03-01T14:50:51.278Z,22.97
2019-03-01T14:53:20.162Z,23.50
2019-03-01T14:56:09.840Z,28.20
2019-03-01T14:58:50.111Z,23.27
2019-03-01T15:01:27.717Z,27.83
2019-03-01T15:03:56.308Z,24.40
2019-03-01T15:06:24.749Z,25.03
2019-03-01T15:08:53.233Z,26.23
2019-03-01T15:11:22.032Z,26.00
2019-03-01T15:13:50.597Z,28.17
2019-03-01T15:16:19.173Z,23.37
2019-03-01T15:18:48.455Z,24.07
2019-03-01T15:21:16.888Z,24.18
2019-03-01T15:23:45.848Z,23.57
2019-03-01T15:26:14.790Z,26.93
2019-03-01T15:28:53.623Z,25.40
2019-03-01T15:31:18.894Z,26.37
2019-03-01T15:33:47.926Z,26.90
2019-03-01T15:36:17.788Z,28.73
2019-03-01T15:38:47.235Z,29.90
2019-03-01T15:41:15.718Z,29.80
2019-03-01T15:43:44.159Z,30.73
2019-03-01T15:46:14.454Z,26.80
2019-03-01T15:48:43.248Z,30.70
2019-03-01T15:51:11.716Z,28.53
2019-03-01T15:53:40.134Z,26.60
2019-03-01T15:56:08.653Z,25.33
2019-03-01T15:58:37.076Z,27.07
2019-03-01T16:01:11.042Z,28.07
2019-03-01T16:03:40.209Z,26.65
2019-03-01T16:06:10.600Z,27.83
2019-03-01T16:08:48.019Z,23.13
2019-03-01T16:11:19.235Z,25.30
2019-03-01T16:13:51.993Z,25.50
2019-03-01T16:16:22.232Z,24.53
2019-03-01T16:18:51.354Z,24.37
2019-03-01T16:21:20.415Z,35.40
2019-03-01T16:23:49.057Z,27.07
2019-03-01T16:26:17.875Z,23.90
2019-03-01T16:28:46.289Z,22.17
2019-03-01T16:31:14.786Z,22.37
2019-03-01T16:33:43.234Z,22.00
2019-03-01T16:36:13.358Z,21.90
2019-03-01T16:38:47.424Z,24.50
2019-03-01T16:41:12.235Z,22.87
2019-03-01T16:43:40.742Z,23.33
2019-03-01T16:46:09.198Z,21.80
2019-03-01T16:48:37.743Z,22.67
2019-03-01T16:51:06.298Z,23.80
2019-03-01T16:53:36.590Z,24.57
2019-03-01T16:56:05.044Z,21.33
2019-03-01T16:58:33.564Z,25.20
2019-03-01T17:01:02.053Z,23.57
2019-03-01T17:03:30.525Z,22.40
2019-03-01T17:05:58.975Z,24.20
2019-03-01T17:08:27.453Z,24.90
2019-03-01T17:10:55.951Z,36.80
2019-03-01T17:13:27.035Z,25.10
2019-03-01T17:15:54.553Z,24.90
2019-03-01T17:18:23.077Z,23.70
2019-03-01T17:20:51.529Z,22.97
2019-03-01T17:23:20.019Z,22.07
2019-03-01T17:25:48.746Z,21.20
2019-03-01T17:28:22.629Z,20.40
2019-03-01T17:30:50.593Z,21.93
2019-03-01T17:33:17.789Z,22.70
2019-03-01T17:35:46.233Z,20.70
2019-03-01T17:38:14.685Z,22.37
2019-03-01T17:40:43.192Z,22.87
2019-03-01T17:43:11.629Z,22.53
2019-03-01T17:45:40.126Z,21.67
2019-03-01T17:48:08.539Z,25.60
2019-03-01T17:50:41.718Z,24.20
2019-03-01T17:53:10.474Z,22.17
2019-03-01T17:55:39.040Z,22.87
2019-03-01T17:58:08.991Z,22.23
2019-03-01T18:00:42.083Z,24.10
2019-03-01T18:03:10.673Z,21.80
2019-03-01T18:05:40.522Z,23.90
2019-03-01T18:08:09.332Z,32.30
2019-03-01T18:10:37.965Z,29.37
2019-03-01T18:13:06.504Z,23.73
2019-03-01T18:15:35.030Z,22.60
2019-03-01T18:18:03.550Z,23.50
2019-03-01T18:20:34.029Z,22.27
2019-03-01T18:23:03.140Z,23.73
2019-03-01T18:25:31.703Z,23.80
2019-03-01T18:28:00.191Z,22.20
2019-03-01T18:30:36.118Z,23.30
2019-03-01T18:33:04.781Z,24.33
2019-03-01T18:35:33.206Z,21.57
2019-03-01T18:38:01.630Z,23.60
2019-03-01T18:40:30.195Z,23.40
2019-03-01T18:42:58.701Z,23.30
2019-03-01T18:45:27.889Z,24.13
2019-03-01T18:47:56.384Z,24.83
2019-03-01T18:50:36.339Z,26.70
2019-03-01T18:53:04.907Z,23.33
2019-03-01T18:55:33.347Z,29.57
2019-03-01T18:58:01.883Z,28.80
2019-03-01T19:00:36.907Z,27.40
2019-03-01T19:03:06.328Z,24.57
2019-03-01T19:05:36.780Z,25.60
2019-03-01T19:08:06.119Z,24.00
2019-03-01T19:10:35.394Z,24.73
2019-03-01T19:13:04.051Z,27.23
2019-03-01T19:15:32.552Z,27.07
2019-03-01T19:18:01.256Z,26.23
2019-03-01T19:20:32.027Z,28.07
2019-03-01T19:23:01.343Z,26.63
2019-03-01T19:25:29.883Z,25.03
2019-03-01T19:27:58.293Z,25.07
2019-03-01T19:30:26.877Z,28.23
2019-03-01T19:32:55.298Z,26.77
2019-03-01T19:35:28.463Z,27.20
2019-03-01T19:37:53.956Z,26.30
2019-03-01T19:40:23.565Z,21.93
2019-03-01T19:42:52.136Z,21.40
2019-03-01T19:45:20.793Z,26.67
2019-03-01T19:47:49.303Z,23.10
2019-03-01T19:50:21.811Z,20.40
2019-03-01T19:52:50.501Z,21.20
2019-03-01T19:55:19.333Z,21.00
2019-03-01T19:57:47.779Z,21.10
2019-03-01T20:00:19.037Z,19.50
2019-03-01T20:02:47.469Z,17.37
2019-03-01T20:05:18.271Z,18.13
2019-03-01T20:07:46.670Z,17.80
2019-03-01T20:10:17.066Z,31.30
2019-03-01T20:12:45.838Z,20.10
2019-03-01T20:15:20.567Z,16.93
2019-03-01T20:17:49.247Z,16.30
2019-03-01T20:20:20.217Z,18.10
2019-03-01T20:22:50.543Z,18.10
2019-03-01T20:25:19.475Z,17.60
2019-03-01T20:27:47.878Z,18.23
2019-03-01T20:30:19.421Z,18.10
2019-03-01T20:32:50.920Z,18.40
2019-03-01T20:35:18.258Z,19.80
2019-03-01T20:37:46.743Z,21.10
2019-03-01T20:40:15.916Z,19.00
2019-03-01T20:42:45.573Z,20.63
2019-03-01T20:45:26.026Z,21.57
2019-03-01T20:47:53.509Z,21.50
2019-03-01T20:50:23.088Z,24.07
2019-03-01T20:52:51.585Z,23.77
2019-03-01T20:55:20.032Z,23.17
2019-03-01T20:57:48.552Z,22.70
2019-03-01T21:00:27.331Z,20.73
2019-03-01T21:02:56.835Z,16.37
2019-03-01T21:05:29.192Z,14.13
2019-03-01T21:07:55.478Z,12.80
2019-03-01T21:10:25.237Z,14.37
2019-03-01T21:12:53.659Z,15.27
2019-03-01T21:15:22.219Z,13.37
2019-03-01T21:17:52.851Z,12.03
2019-03-01T21:20:21.105Z,12.67
2019-03-01T21:22:49.565Z,11.30
2019-03-01T21:25:23.041Z,12.93
2019-03-01T21:27:51.477Z,13.10
2019-03-01T21:30:25.194Z,14.60
2019-03-01T21:32:53.634Z,15.70
2019-03-01T21:35:22.299Z,13.27
2019-03-01T21:37:51.365Z,14.67
2019-03-01T21:40:20.188Z,14.47
2019-03-01T21:42:48.623Z,13.07
2019-03-01T21:45:21.515Z,14.43
2019-03-01T21:47:49.053Z,12.43
2019-03-01T21:50:17.645Z,15.37
2019-03-01T21:52:46.210Z,17.73
2019-03-01T21:55:17.318Z,12.20
2019-03-01T21:57:45.838Z,12.87
2019-03-01T22:00:17.358Z,13.03
2019-03-01T22:02:48.822Z,10.93
2019-03-01T22:05:16.075Z,10.30
2019-03-01T22:07:44.517Z,12.83
2019-03-01T22:10:14.327Z,10.00
2019-03-01T22:12:43.068Z,10.57
2019-03-01T22:15:27.552Z,13.60
2019-03-01T22:17:56.284Z,11.97
2019-03-01T22:20:25.118Z,12.90
2019-03-01T22:22:53.636Z,13.33
2019-03-01T22:25:22.222Z,13.70
2019-03-01T22:27:50.647Z,15.50
2019-03-01T22:30:30.260Z,14.67
2019-03-01T22:32:58.774Z,15.80
2019-03-01T22:35:27.428Z,16.17
2019-03-01T22:37:55.932Z,15.73
2019-03-01T22:40:27.906Z,17.67
2019-03-01T22:42:54.816Z,19.50
2019-03-01T22:45:23.685Z,19.43
2019-03-01T22:47:52.363Z,16.67
2019-03-01T22:50:21.154Z,19.37
2019-03-01T22:52:49.668Z,19.30
2019-03-01T22:55:18.868Z,19.40
2019-03-01T22:57:47.611Z,18.93
2019-03-01T23:00:29.795Z,20.20
2019-03-01T23:02:58.537Z,19.70
2019-03-01T23:05:27.191Z,20.40
2019-03-01T23:07:56.926Z,21.63
2019-03-01T23:10:25.896Z,18.97
2019-03-01T23:12:54.337Z,22.00
2019-03-01T23:15:22.745Z,20.57
2019-03-01T23:17:51.172Z,21.00
2019-03-01T23:20:19.597Z,21.60
2019-03-01T23:22:48.059Z,20.17
2019-03-01T23:25:16.469Z,20.23
2019-03-01T23:27:44.927Z,22.00
2019-03-01T23:30:13.426Z,23.20
2019-03-01T23:32:41.873Z,21.03
2019-03-01T23:35:10.390Z,22.33
2019-03-01T23:37:39.864Z,22.63
2019-03-01T23:40:09.109Z,21.77
2019-03-01T23:42:37.608Z,24.10
2019-03-01T23:45:13.671Z,22.40
2019-03-01T23:47:40.846Z,21.83
2019-03-01T23:50:11.943Z,23.97
2019-03-01T23:52:40.389Z,24.20
2019-03-01T23:55:09.625Z,25.70
2019-03-01T23:57:40.986Z,25.60
